Time;durP1;ratioP1;P1;durP2;ratioP2;P2;SDS_P1;SDS_P2;PMS_P1;PMS_P2;Temp;Humidity;BMP_temperature;BMP_pressure;BME280_temperature;BME280_humidity;BME280_pressure;Samples;Min_cycle;Max_cycle;Signal;HPM_P1;HPM_P2
2021/08/05 05:20:26;;;;;;;6.70;4.38;;;;;;;;;;4967394;23;20099;-87
2021/08/05 05:25:43;;;;;;;6.43;4.43;;;;;;;;;;4943241;23;20059;-87
2021/08/05 05:28:14;;;;;;;6.97;5.13;;;;;;;;;;4906602;29;20062;-88
2021/08/05 05:31:25;;;;;;;6.03;5.05;;;;;;;;;;4938113;29;20079;-88
2021/08/05 05:41:57;;;;;;;7.55;5.07;;;;;;;;;;3232202;27;20052;-88
2021/08/05 05:44:53;;;;;;;5.50;4.93;;;;;;;;;;4938600;29;20078;-87
2021/08/05 06:08:09;;;;;;;5.00;4.50;;;;;;;;;;5315879;23;20337;-85
2021/08/05 06:11:02;;;;;;;9.05;5.90;;;;;;;;;;4914131;29;20068;-86
2021/08/05 06:25:08;;;;;;;8.25;4.95;;;;;;;;;;5737507;23;20052;-86
2021/08/05 06:27:56;;;;;;;6.05;4.70;;;;;;;;;;4900323;29;20032;-87
2021/08/05 06:30:54;;;;;;;6.35;5.45;;;;;;;;;;4941572;29;20081;-86
2021/08/05 06:54:14;;;;;;;7.35;6.57;;;;;;;;;;4844609;29;20016;-86
2021/08/05 07:03:22;;;;;;;8.05;4.72;;;;;;;;;;4941303;29;20047;-87
2021/08/05 07:06:13;;;;;;;5.45;4.88;;;;;;;;;;4941315;29;20059;-86
2021/08/05 07:12:24;;;;;;;5.35;4.85;;;;;;;;;;5528910;23;20069;-85
2021/08/05 07:15:50;;;;;;;5.28;4.70;;;;;;;;;;4903885;29;20057;-86
2021/08/05 07:19:28;;;;;;;6.05;4.72;;;;;;;;;;4903958;29;20109;-86
2021/08/05 07:22:59;;;;;;;7.45;4.32;;;;;;;;;;4859345;29;20132;-86
2021/08/05 07:29:15;;;;;;;3.97;3.58;;;;;;;;;;4859233;29;19911;-86
2021/08/05 07:32:24;;;;;;;3.47;2.70;;;;;;;;;;4847648;29;20035;-86
2021/08/05 10:42:55;;;;;;;0.63;0.60;;;;;;;;;;5179281;23;20075;-82
2021/08/05 10:45:27;;;;;;;1.38;0.70;;;;;;;;;;4941697;29;20035;-82
2021/08/05 10:48:23;;;;;;;1.10;0.70;;;;;;;;;;4987245;23;20044;-83
2021/08/05 10:54:04;;;;;;;1.08;0.47;;;;;;;;;;5661693;23;20474;-83
2021/08/05 11:03:02;;;;;;;0.60;0.60;;;;;;;;;;4939178;29;20054;-83
2021/08/05 11:06:00;;;;;;;0.75;0.68;;;;;;;;;;4918393;29;20042;-83
2021/08/05 11:08:54;;;;;;;0.90;0.70;;;;;;;;;;4851867;29;20042;-83
2021/08/05 16:17:06;;;;;;;1.02;0.75;;;;;;;;;;5179600;23;20047;-81
2021/08/05 16:22:57;;;;;;;1.58;0.80;;;;;;;;;;4945861;23;20068;-83
2021/08/05 16:25:22;;;;;;;1.40;0.95;;;;;;;;;;4902096;29;20080;-81
2021/08/05 16:27:48;;;;;;;3.10;0.80;;;;;;;;;;4901126;29;20480;-83
2021/08/05 16:30:13;;;;;;;2.45;0.88;;;;;;;;;;4900111;29;20048;-83
2021/08/05 16:32:38;;;;;;;1.15;0.82;;;;;;;;;;4881964;29;20043;-83
2021/08/05 16:35:04;;;;;;;0.82;0.70;;;;;;;;;;4881635;29;20028;-82
2021/08/05 16:37:31;;;;;;;1.10;0.90;;;;;;;;;;4888774;29;20032;-81
2021/08/05 16:39:56;;;;;;;1.73;0.90;;;;;;;;;;4906389;29;20509;-81
2021/08/05 16:42:22;;;;;;;1.10;0.93;;;;;;;;;;4903550;29;20048;-82
2021/08/05 16:44:47;;;;;;;1.08;0.95;;;;;;;;;;4881850;29;20504;-82
2021/08/05 16:47:13;;;;;;;1.10;0.80;;;;;;;;;;4881287;29;20107;-83
2021/08/05 16:49:42;;;;;;;0.65;0.60;;;;;;;;;;4897832;29;20502;-83
2021/08/05 16:52:08;;;;;;;0.70;0.70;;;;;;;;;;4898229;29;20505;-82
2021/08/05 16:54:33;;;;;;;0.95;0.80;;;;;;;;;;4899004;29;20043;-83
2021/08/05 16:56:59;;;;;;;1.75;0.90;;;;;;;;;;4880739;29;20048;-84
2021/08/05 16:59:25;;;;;;;1.70;0.90;;;;;;;;;;4897714;29;20032;-85
2021/08/05 17:01:50;;;;;;;1.15;0.90;;;;;;;;;;4896413;29;20096;-85
2021/08/05 17:04:15;;;;;;;2.88;0.73;;;;;;;;;;4906429;29;20083;-85
2021/08/05 17:06:41;;;;;;;1.35;0.80;;;;;;;;;;4896807;29;20485;-86
2021/08/05 17:09:08;;;;;;;0.55;0.50;;;;;;;;;;4897823;29;20037;-86
2021/08/05 17:11:33;;;;;;;4.00;1.08;;;;;;;;;;4880650;29;20083;-84
2021/08/05 17:13:59;;;;;;;2.33;1.10;;;;;;;;;;4882170;29;20474;-84
2021/08/05 17:16:25;;;;;;;17.38;2.35;;;;;;;;;;4866668;29;20029;-86
2021/08/05 17:18:51;;;;;;;1.33;0.82;;;;;;;;;;4890266;29;20508;-84
2021/08/05 17:21:20;;;;;;;0.70;0.70;;;;;;;;;;4888001;29;20032;-84
2021/08/05 17:23:48;;;;;;;1.30;1.00;;;;;;;;;;4892049;29;20103;-83
2021/08/05 17:26:14;;;;;;;1.08;0.98;;;;;;;;;;4893435;29;20036;-82
2021/08/05 17:28:39;;;;;;;2.90;0.82;;;;;;;;;;4872527;29;20036;-82
2021/08/05 17:31:05;;;;;;;3.55;1.10;;;;;;;;;;4891021;29;20040;-83
2021/08/05 17:33:31;;;;;;;0.80;0.70;;;;;;;;;;4866714;29;20441;-83
2021/08/05 17:35:57;;;;;;;1.30;0.80;;;;;;;;;;4894031;29;20041;-83
2021/08/05 17:38:22;;;;;;;1.05;0.90;;;;;;;;;;4883828;29;20425;-82
2021/08/05 17:40:48;;;;;;;1.15;0.90;;;;;;;;;;4889567;29;20073;-82
2021/08/05 17:43:13;;;;;;;0.73;0.65;;;;;;;;;;4863102;29;20037;-83
2021/08/05 17:45:41;;;;;;;1.23;0.80;;;;;;;;;;4889867;29;20036;-83
2021/08/05 17:48:07;;;;;;;1.27;0.90;;;;;;;;;;4879394;29;20430;-84
2021/08/05 17:50:32;;;;;;;1.88;1.10;;;;;;;;;;4880630;29;20079;-84
2021/08/05 17:52:57;;;;;;;1.27;0.80;;;;;;;;;;4880480;29;20029;-83
2021/08/05 17:55:23;;;;;;;1.15;0.90;;;;;;;;;;4877908;29;20036;-82
2021/08/05 17:57:51;;;;;;;1.58;0.90;;;;;;;;;;4876932;29;20077;-83
2021/08/05 18:00:16;;;;;;;2.70;1.10;;;;;;;;;;4870384;29;20520;-81
2021/08/05 18:02:42;;;;;;;1.20;0.90;;;;;;;;;;4881411;29;20041;-82
2021/08/05 18:05:08;;;;;;;2.63;1.10;;;;;;;;;;4868015;29;20629;-81
2021/08/05 18:07:35;;;;;;;2.28;1.10;;;;;;;;;;4889972;29;20040;-79
2021/08/05 20:38:27;;;;;;;4.47;1.83;;;;;;;;;;5561763;23;20072;-82
2021/08/05 20:40:53;;;;;;;3.88;2.08;;;;;;;;;;4905450;29;20591;-81
